Avila Beach, California
Current Conditions -  °F | °C
As of 7:56 AM on Tuesday 21 Oct 2014 (Local Time) from KSBP Reporting Station
Clear Clear  
Wind Chill: 61°   Ceiling: Unl
Heat Index: 61°   Visibility: 10mi
Dew Point: 48°   Wind: 7mph
Humidity: 62%   Direction: 310°NW
Pressure: 30"   Gusts: NA
Location:  35.18°N, 120.73°W
Report Text: KSBP 211456Z 31006KT 10SM CLR 16/09 A3000 RMK AO2 SLP157 T01610089 53011
Loading
Personal Weather Stations






























Interactive Weather Map New forecast layout! Learn more

10-Day Weather Forecast

Advertisements
Track Severe Weather on mobile